Time;durP1;ratioP1;P1;durP2;ratioP2;P2;SDS_P1;SDS_P2;PMS_P1;PMS_P2;Temp;Humidity;BMP_temperature;BMP_pressure;BME280_temperature;BME280_humidity;BME280_pressure;Samples;Min_cycle;Max_cycle;Signal;HPM_P1;HPM_P2
2022/01/22 00:01:07;;;;;;;13.60;3.72;;;6.80;99.90;;;;;;2117876;67;20200;-74
2022/01/22 00:03:50;;;;;;;17.13;4.13;;;6.90;99.90;;;;;;2112863;67;20334;-73
2022/01/22 00:06:32;;;;;;;10.60;3.20;;;6.80;99.90;;;;;;2123039;67;20773;-73
2022/01/22 00:09:15;;;;;;;12.18;3.10;;;6.80;99.90;;;;;;2126452;67;20203;-73
2022/01/22 00:12:00;;;;;;;13.90;3.60;;;6.80;99.90;;;;;;2117417;67;20169;-73
2022/01/22 00:14:42;;;;;;;11.15;3.10;;;6.80;99.90;;;;;;2105030;67;20772;-74
2022/01/22 00:17:24;;;;;;;13.13;3.28;;;6.80;99.90;;;;;;2117875;67;20181;-73
2022/01/22 00:20:07;;;;;;;15.40;2.85;;;7.30;99.90;;;;;;2111092;67;20308;-74
2022/01/22 00:22:53;;;;;;;12.38;2.80;;;6.80;99.90;;;;;;2110542;67;20634;-73
2022/01/22 00:25:36;;;;;;;12.82;2.88;;;6.80;99.90;;;;;;2111262;67;20379;-73
2022/01/22 00:28:20;;;;;;;13.52;2.78;;;6.80;99.90;;;;;;2106206;67;20186;-73
2022/01/22 00:31:02;;;;;;;12.63;3.00;;;6.80;99.90;;;;;;2105550;68;20709;-72
2022/01/22 00:33:44;;;;;;;16.92;3.10;;;6.80;99.90;;;;;;2098575;68;20332;-74
2022/01/22 00:36:26;;;;;;;10.73;3.17;;;6.70;99.90;;;;;;2104179;67;20182;-73
2022/01/22 00:39:08;;;;;;;15.75;3.45;;;6.70;99.90;;;;;;2103827;68;20796;-73
2022/01/22 00:41:50;;;;;;;14.43;3.08;;;6.80;99.90;;;;;;2101514;67;20241;-73
2022/01/22 00:44:32;;;;;;;17.00;3.15;;;6.80;99.90;;;;;;2110467;67;20327;-74
2022/01/22 00:47:14;;;;;;;16.95;3.58;;;6.70;99.90;;;;;;2126117;67;20302;-72
2022/01/22 00:49:56;;;;;;;14.55;3.80;;;6.70;99.90;;;;;;2118984;67;20657;-72
2022/01/22 00:52:41;;;;;;;12.10;2.90;;;6.70;99.90;;;;;;2132393;67;20351;-74
2022/01/22 00:55:25;;;;;;;14.43;3.13;;;6.70;99.90;;;;;;2122569;67;20430;-72
2022/01/22 00:58:07;;;;;;;8.00;2.20;;;6.70;99.90;;;;;;2119543;67;20253;-73
2022/01/22 01:00:49;;;;;;;10.18;2.60;;;6.70;99.90;;;;;;2129439;67;20180;-73
2022/01/22 01:03:33;;;;;;;9.93;2.03;;;6.70;99.90;;;;;;2148035;66;20250;-75
2022/01/22 01:06:15;;;;;;;7.60;3.17;;;6.70;99.90;;;;;;2140183;66;20317;-72
2022/01/22 01:08:59;;;;;;;12.40;2.33;;;7.00;99.90;;;;;;2140590;66;20262;-73
2022/01/22 01:11:48;;;;;;;11.20;2.63;;;6.80;99.90;;;;;;2139444;66;20332;-74
2022/01/22 01:14:46;;;;;;;11.55;2.70;;;7.10;99.90;;;;;;2129888;67;20431;-74
2022/01/22 01:32:52;;;;;;;13.13;2.22;;;6.80;99.90;;;;;;2108876;67;20245;-73
2022/01/22 01:35:33;;;;;;;7.05;2.25;;;6.80;99.90;;;;;;2109600;67;21003;-73
2022/01/22 01:38:17;;;;;;;9.43;2.30;;;6.80;99.90;;;;;;2105804;67;20266;-72
2022/01/22 01:41:07;;;;;;;9.50;2.13;;;6.80;99.90;;;;;;2121678;67;20215;-73
2022/01/22 01:43:49;;;;;;;4.60;1.70;;;6.80;99.90;;;;;;2132331;67;20305;-72
2022/01/22 01:46:33;;;;;;;7.55;2.00;;;6.80;99.90;;;;;;2136692;67;20270;-72
2022/01/22 01:49:18;;;;;;;7.15;1.98;;;6.90;99.90;;;;;;2147026;66;20165;-73
2022/01/22 01:52:03;;;;;;;11.65;1.63;;;6.80;99.90;;;;;;2141245;66;20210;-72
2022/01/22 01:55:09;;;;;;;8.93;2.13;;;6.90;99.90;;;;;;2145353;66;20343;-73
2022/01/22 01:57:51;;;;;;;4.93;1.40;;;6.80;99.90;;;;;;2149177;66;20453;-73
2022/01/22 02:00:34;;;;;;;8.18;2.75;;;7.00;99.90;;;;;;2149842;66;20331;-72
2022/01/22 02:03:17;;;;;;;8.90;2.13;;;6.80;99.90;;;;;;2155320;66;20189;-72
2022/01/22 02:05:59;;;;;;;7.50;1.65;;;6.80;99.90;;;;;;2150087;66;20370;-73
2022/01/22 02:08:41;;;;;;;6.05;2.15;;;6.80;99.90;;;;;;2149175;66;20255;-72
2022/01/22 02:11:25;;;;;;;9.25;2.13;;;6.80;99.90;;;;;;2152996;66;20253;-73
2022/01/22 02:25:57;;;;;;;6.57;1.80;;;6.80;99.90;;;;;;2141893;66;20291;-73
2022/01/22 02:28:40;;;;;;;9.27;2.13;;;6.80;99.90;;;;;;2136891;66;20891;-74
2022/01/22 02:37:01;;;;;;;8.45;1.88;;;6.70;99.90;;;;;;2141150;66;20195;-73
2022/01/22 02:39:59;;;;;;;6.03;1.65;;;6.70;99.90;;;;;;2129133;67;20224;-72
2022/01/22 02:42:44;;;;;;;6.25;1.65;;;6.70;99.90;;;;;;2132539;67;20335;-74
2022/01/22 02:45:27;;;;;;;8.70;2.07;;;6.70;99.90;;;;;;2129543;67;20696;-74
2022/01/22 02:48:10;;;;;;;7.80;3.15;;;6.70;99.90;;;;;;2120045;67;20382;-73
2022/01/22 02:50:55;;;;;;;7.68;2.20;;;7.00;99.90;;;;;;2111351;67;20417;-73
2022/01/22 02:53:36;;;;;;;5.88;1.90;;;6.70;99.90;;;;;;2109275;67;20330;-73
2022/01/22 02:56:21;;;;;;;10.95;2.70;;;6.70;99.90;;;;;;2114210;67;20600;-73
2022/01/22 02:59:04;;;;;;;7.70;1.92;;;6.70;99.90;;;;;;2106772;67;20216;-73
2022/01/22 03:01:49;;;;;;;;;;;6.70;99.90;;;;;;2112211;67;20341;-73
2022/01/22 03:04:34;;;;;;;5.35;2.53;;;6.70;99.90;;;;;;2110417;67;20238;-74
2022/01/22 03:07:16;;;;;;;7.72;1.63;;;6.70;99.90;;;;;;2110637;67;21025;-72
2022/01/22 03:10:02;;;;;;;7.70;2.10;;;7.50;99.90;;;;;;2119599;67;20177;-73
2022/01/22 03:13:04;;;;;;;8.07;1.60;;;6.70;99.90;;;;;;2133717;67;20634;-73
2022/01/22 03:18:50;;;;;;;5.10;1.42;;;6.70;99.90;;;;;;2135523;66;20178;-74
2022/01/22 03:21:44;;;;;;;4.60;1.38;;;6.70;99.90;;;;;;2144862;66;20187;-73
2022/01/22 03:27:29;;;;;;;6.90;2.80;;;6.60;99.90;;;;;;2132732;67;20231;-73
2022/01/22 03:30:14;;;;;;;7.90;1.90;;;6.70;99.90;;;;;;2138861;66;20659;-73
2022/01/22 03:32:57;;;;;;;16.55;2.03;;;6.80;99.90;;;;;;2132516;66;20406;-74
2022/01/22 03:35:44;;;;;;;7.60;2.22;;;6.80;99.90;;;;;;2137171;66;20258;-73
2022/01/22 03:38:27;;;;;;;5.32;1.88;;;6.80;99.90;;;;;;2142748;66;20359;-72
2022/01/22 03:41:09;;;;;;;6.47;1.88;;;6.50;99.90;;;;;;2147109;66;20714;-73
2022/01/22 03:43:52;;;;;;;6.50;1.58;;;6.70;99.90;;;;;;2161037;66;20195;-72
2022/01/22 03:46:36;;;;;;;4.55;1.33;;;6.80;99.90;;;;;;2152338;66;20325;-72
2022/01/22 03:49:18;;;;;;;5.05;1.42;;;6.70;99.90;;;;;;2140006;67;20323;-73
2022/01/22 03:52:03;;;;;;;5.72;1.33;;;6.70;99.90;;;;;;2132450;67;20392;-74
2022/01/22 03:54:45;;;;;;;7.93;1.52;;;6.70;99.90;;;;;;2132107;67;20240;-74
2022/01/22 03:57:26;;;;;;;5.80;1.55;;;6.70;99.90;;;;;;2139614;67;20887;-72
2022/01/22 04:00:10;;;;;;;6.60;1.88;;;6.70;99.90;;;;;;2139627;66;20395;-73
2022/01/22 04:03:26;;;;;;;9.25;1.80;;;6.70;99.90;;;;;;2145311;66;20866;-72
2022/01/22 04:09:11;;;;;;;7.75;1.95;;;6.70;99.90;;;;;;2144368;66;20183;-75
2022/01/22 04:11:57;;;;;;;11.55;2.53;;;6.70;99.90;;;;;;2131477;67;20246;-72
2022/01/22 04:14:57;;;;;;;8.40;2.17;;;6.60;99.90;;;;;;2136645;66;20183;-73
2022/01/22 04:26:56;;;;;;;9.05;2.03;;;6.60;99.90;;;;;;2131151;67;20762;-73
2022/01/22 04:29:40;;;;;;;8.55;1.85;;;6.60;99.90;;;;;;2137953;66;20296;-73
2022/01/22 04:32:22;;;;;;;7.14;1.34;;;6.60;99.90;;;;;;1924061;66;15102952;-73
2022/01/22 04:35:05;;;;;;;7.65;1.45;;;6.60;99.90;;;;;;2147869;66;20292;-72
2022/01/22 04:37:47;;;;;;;3.22;1.08;;;6.60;99.90;;;;;;2144542;66;20196;-74
2022/01/22 04:40:30;;;;;;;7.70;1.00;;;6.60;99.90;;;;;;2148875;66;20290;-73
2022/01/22 04:43:15;;;;;;;4.40;1.02;;;6.60;99.90;;;;;;2165848;66;20285;-73
2022/01/22 04:49:09;;;;;;;4.85;1.58;;;6.50;99.90;;;;;;2170110;65;20704;-72
2022/01/22 04:54:59;;;;;;;3.17;1.40;;;6.60;99.90;;;;;;2150089;66;20202;-74
2022/01/22 04:57:43;;;;;;;2.60;0.90;;;6.60;99.90;;;;;;2147851;66;20257;-74
2022/01/22 05:00:26;;;;;;;10.32;1.80;;;6.60;99.90;;;;;;2154387;66;20603;-74
2022/01/22 05:03:08;;;;;;;5.72;1.60;;;6.60;99.90;;;;;;2150807;66;20274;-73
2022/01/22 05:05:51;;;;;;;3.70;2.08;;;6.60;99.90;;;;;;2146089;66;20182;-73
2022/01/22 05:08:35;;;;;;;6.93;1.33;;;6.60;99.90;;;;;;2142436;66;20275;-74
2022/01/22 05:11:19;;;;;;;8.75;1.40;;;6.60;99.90;;;;;;2146027;66;20804;-74
2022/01/22 05:14:03;;;;;;;7.40;1.48;;;6.60;99.90;;;;;;2134575;67;20343;-73
2022/01/22 05:16:47;;;;;;;11.27;2.28;;;6.60;99.90;;;;;;2149263;66;20686;-72
2022/01/22 05:19:38;;;;;;;8.98;2.33;;;6.60;99.90;;;;;;2157024;66;20834;-72
2022/01/22 05:22:37;;;;;;;9.07;1.67;;;6.70;99.90;;;;;;2155602;66;20181;-73
2022/01/22 05:25:34;;;;;;;8.27;2.08;;;6.70;99.90;;;;;;2146767;66;20249;-72
2022/01/22 05:37:01;;;;;;;8.13;2.08;;;6.60;99.90;;;;;;2153655;66;20254;-73
2022/01/22 05:39:46;;;;;;;9.77;2.55;;;6.60;99.90;;;;;;2147491;66;20257;-73
2022/01/22 05:42:28;;;;;;;6.80;1.48;;;6.70;99.90;;;;;;2155573;66;20331;-75
2022/01/22 05:45:11;;;;;;;12.63;2.03;;;6.60;99.90;;;;;;2150071;66;20311;-72
2022/01/22 05:47:52;;;;;;;10.07;1.80;;;6.60;99.90;;;;;;2133024;66;20602;-74
2022/01/22 05:50:48;;;;;;;5.30;1.52;;;6.60;99.90;;;;;;2133029;67;20356;-72
2022/01/22 06:02:17;;;;;;;12.68;2.10;;;6.60;99.90;;;;;;2136260;67;20720;-71
2022/01/22 06:04:59;;;;;;;9.82;1.88;;;6.60;99.90;;;;;;2144454;66;20323;-74
2022/01/22 06:07:41;;;;;;;8.25;1.80;;;6.50;99.90;;;;;;2139849;67;20218;-72
2022/01/22 06:10:28;;;;;;;9.48;2.22;;;6.80;99.90;;;;;;2157511;66;20306;-72
2022/01/22 06:13:16;;;;;;;8.65;2.20;;;6.60;99.90;;;;;;2139826;66;20230;-73
2022/01/22 06:15:58;;;;;;;8.43;2.22;;;6.60;99.90;;;;;;2133855;67;20937;-73
2022/01/22 06:18:41;;;;;;;9.95;2.30;;;6.60;99.90;;;;;;2143053;66;20327;-72
2022/01/22 06:21:22;;;;;;;11.95;2.55;;;6.60;99.90;;;;;;2133088;67;20276;-75
2022/01/22 06:24:05;;;;;;;11.43;2.35;;;6.60;99.90;;;;;;2125460;67;20419;-74
2022/01/22 06:26:47;;;;;;;7.50;1.85;;;6.60;99.90;;;;;;2129693;67;20234;-74
2022/01/22 06:29:29;;;;;;;6.68;1.77;;;6.50;99.90;;;;;;2120674;67;20175;-73
2022/01/22 06:32:12;;;;;;;8.00;1.98;;;6.60;99.90;;;;;;2128595;67;20263;-73
2022/01/22 06:34:57;;;;;;;;;;;6.50;99.90;;;;;;2124195;67;20236;-73
2022/01/22 06:37:39;;;;;;;7.15;1.42;;;6.50;99.90;;;;;;2131819;67;20112;-72
2022/01/22 06:43:23;;;;;;;7.72;1.95;;;6.50;99.90;;;;;;2127288;67;20316;-73
2022/01/22 06:46:06;;;;;;;6.78;2.10;;;6.50;99.90;;;;;;2124295;67;20232;-73
2022/01/22 06:48:51;;;;;;;4.03;1.48;;;6.50;99.90;;;;;;2113667;67;20197;-71
2022/01/22 06:51:33;;;;;;;3.13;1.25;;;6.50;99.90;;;;;;2108371;67;20573;-72
2022/01/22 06:54:20;;;;;;;4.20;1.60;;;6.40;99.90;;;;;;2109633;67;20260;-73
2022/01/22 06:57:05;;;;;;;4.55;1.70;;;6.50;99.90;;;;;;2105780;67;20203;-72
2022/01/22 06:59:48;;;;;;;4.40;1.60;;;6.40;99.90;;;;;;2105663;67;20221;-73
2022/01/22 07:02:48;;;;;;;4.85;1.60;;;6.40;99.90;;;;;;2116771;67;20438;-72
2022/01/22 07:05:30;;;;;;;4.20;1.25;;;6.40;99.90;;;;;;2108180;67;20278;-73
2022/01/22 07:08:12;;;;;;;4.60;1.70;;;6.40;99.90;;;;;;2108394;67;20181;-72
2022/01/22 07:10:54;;;;;;;4.55;1.45;;;6.40;99.90;;;;;;2105449;67;20720;-72
2022/01/22 07:13:35;;;;;;;9.45;1.90;;;6.40;99.90;;;;;;2092191;68;21344;-72
2022/01/22 07:16:18;;;;;;;5.90;1.80;;;6.40;99.90;;;;;;2108973;67;20334;-72
2022/01/22 07:19:04;;;;;;;6.05;1.80;;;6.40;99.90;;;;;;2123420;67;20400;-73
2022/01/22 07:22:01;;;;;;;3.13;1.58;;;6.40;99.90;;;;;;2131183;67;20176;-73
2022/01/22 07:24:53;;;;;;;6.72;2.08;;;6.40;99.90;;;;;;2133382;67;20387;-72
2022/01/22 07:27:35;;;;;;;4.72;1.92;;;6.40;99.90;;;;;;2129379;67;20363;-72
2022/01/22 07:30:17;;;;;;;8.38;2.17;;;6.40;99.90;;;;;;2145937;66;20175;-73
2022/01/22 07:33:04;;;;;;;10.48;2.13;;;6.30;99.90;;;;;;2141124;67;20332;-73
2022/01/22 07:35:52;;;;;;;7.75;2.35;;;6.30;99.90;;;;;;2159432;66;20251;-73
2022/01/22 07:38:38;;;;;;;6.95;2.40;;;6.30;99.90;;;;;;2153992;66;20688;-72
2022/01/22 07:41:20;;;;;;;5.70;2.03;;;6.30;99.90;;;;;;2153113;66;20379;-72
2022/01/22 07:44:05;;;;;;;;;;;6.30;99.90;;;;;;2147510;66;20279;-74
2022/01/22 07:46:46;;;;;;;3.75;1.77;;;6.20;99.90;;;;;;2135708;66;20151;-74
2022/01/22 07:49:29;;;;;;;4.18;1.65;;;6.30;99.90;;;;;;2139132;66;20824;-72
2022/01/22 07:52:10;;;;;;;3.70;1.45;;;6.30;99.90;;;;;;2126592;67;20245;-74
2022/01/22 07:54:54;;;;;;;5.13;1.77;;;6.30;99.90;;;;;;2140671;67;20163;-72
2022/01/22 07:57:40;;;;;;;;;;;6.20;99.90;;;;;;2126981;67;20180;-73
2022/01/22 08:00:22;;;;;;;3.92;1.52;;;6.30;99.90;;;;;;2125943;67;20206;-73
2022/01/22 08:03:06;;;;;;;7.10;1.50;;;6.30;99.90;;;;;;2132543;67;20256;-72
2022/01/22 08:05:48;;;;;;;7.20;1.83;;;6.20;99.90;;;;;;2127521;67;20215;-74
2022/01/22 08:08:30;;;;;;;7.40;1.65;;;6.30;99.90;;;;;;2128273;67;20768;-73
2022/01/22 08:11:12;;;;;;;6.55;1.70;;;6.20;99.90;;;;;;2133605;67;20304;-74
2022/01/22 08:13:55;;;;;;;5.40;2.25;;;6.20;99.90;;;;;;2142940;66;20424;-73
2022/01/22 08:16:38;;;;;;;2.20;1.40;;;6.20;99.90;;;;;;2141736;66;20428;-72
2022/01/22 08:19:23;;;;;;;7.82;1.50;;;6.10;99.90;;;;;;2155922;66;20177;-72
2022/01/22 08:22:05;;;;;;;6.70;1.60;;;6.30;99.90;;;;;;2164331;65;20206;-74
2022/01/22 08:24:52;;;;;;;3.30;1.10;;;6.30;99.90;;;;;;2160951;65;20216;-74
2022/01/22 08:28:53;;;;;;;3.53;1.10;;;6.30;99.90;;;;;;2153280;66;20420;-74
2022/01/22 08:30:45;;;;;;;4.78;1.27;;;6.30;99.90;;;;;;2140276;66;20241;-74
2022/01/22 08:36:37;;;;;;;9.07;1.65;;;6.40;99.90;;;;;;2132417;66;20248;-74
2022/01/22 08:39:21;;;;;;;7.43;1.48;;;6.40;99.90;;;;;;2149789;66;20221;-73
2022/01/22 08:42:05;;;;;;;9.27;1.80;;;6.40;99.90;;;;;;2129777;67;20274;-73
2022/01/22 08:44:47;;;;;;;6.03;1.70;;;6.40;99.90;;;;;;2110971;67;20256;-74
2022/01/22 08:47:29;;;;;;;7.88;1.85;;;6.50;99.90;;;;;;2113809;67;20328;-73
2022/01/22 08:50:11;;;;;;;9.55;1.48;;;6.50;99.90;;;;;;2114554;67;20194;-72
2022/01/22 08:52:53;;;;;;;5.57;1.17;;;6.50;99.90;;;;;;2108346;67;20189;-72
2022/01/22 08:55:37;;;;;;;4.25;1.20;;;6.50;99.90;;;;;;2113267;67;20240;-73
2022/01/22 08:58:22;;;;;;;2.92;1.27;;;6.50;99.90;;;;;;2099601;67;20186;-73
2022/01/22 09:01:07;;;;;;;2.22;1.15;;;6.70;99.90;;;;;;2112417;67;20330;-72
2022/01/22 09:03:49;;;;;;;6.70;1.50;;;6.60;99.90;;;;;;2100382;68;20344;-73
2022/01/22 09:06:31;;;;;;;6.18;1.83;;;6.60;99.90;;;;;;2086867;68;20387;-72
2022/01/22 09:09:13;;;;;;;3.55;1.15;;;6.70;99.90;;;;;;2073851;69;20255;-73
2022/01/22 09:11:55;;;;;;;4.32;1.23;;;6.70;99.90;;;;;;2086989;68;20268;-73
2022/01/22 09:14:39;;;;;;;3.15;1.20;;;6.70;99.90;;;;;;2104172;68;20318;-73
2022/01/22 09:17:22;;;;;;;4.15;1.13;;;6.70;99.90;;;;;;2111076;67;20218;-72
2022/01/22 09:20:13;;;;;;;6.93;1.20;;;6.70;99.90;;;;;;2096608;68;20175;-73
2022/01/22 09:22:55;;;;;;;6.97;1.77;;;6.70;99.90;;;;;;2094983;67;20233;-74
2022/01/22 09:25:40;;;;;;;3.55;1.10;;;6.70;99.90;;;;;;2104193;68;20707;-74
2022/01/22 09:28:21;;;;;;;7.03;1.70;;;6.80;99.90;;;;;;2114112;67;20255;-75
2022/01/22 09:31:03;;;;;;;7.68;1.90;;;6.70;99.90;;;;;;2117738;67;20210;-73
2022/01/22 09:33:45;;;;;;;6.22;1.67;;;6.80;99.90;;;;;;2110521;67;20263;-73
2022/01/22 09:36:29;;;;;;;10.45;2.05;;;6.80;99.90;;;;;;2099839;67;20312;-74
2022/01/22 09:39:11;;;;;;;7.10;1.55;;;6.80;99.90;;;;;;2112564;67;20177;-74
2022/01/22 09:41:54;;;;;;;5.53;1.73;;;6.80;99.90;;;;;;2113587;67;20217;-74
2022/01/22 09:44:41;;;;;;;5.30;1.75;;;6.80;99.90;;;;;;2124967;67;20780;-74
2022/01/22 09:47:23;;;;;;;8.20;2.10;;;6.90;99.90;;;;;;2119583;67;20235;-73
2022/01/22 09:50:11;;;;;;;9.43;3.28;;;6.80;99.90;;;;;;2112780;67;20230;-74
2022/01/22 09:52:53;;;;;;;6.15;1.70;;;6.80;99.90;;;;;;2131446;67;20164;-72
2022/01/22 09:55:35;;;;;;;7.97;1.95;;;6.90;99.90;;;;;;2128521;66;20359;-73
2022/01/22 09:58:17;;;;;;;9.93;1.83;;;6.90;99.90;;;;;;2138949;67;20758;-73
2022/01/22 10:01:25;;;;;;;5.80;1.70;;;6.90;99.90;;;;;;2137547;67;20812;-72
2022/01/22 10:04:09;;;;;;;7.85;2.05;;;6.90;99.90;;;;;;2145520;66;20420;-74
2022/01/22 10:06:54;;;;;;;6.60;1.55;;;7.00;99.90;;;;;;2125866;67;20242;-75
2022/01/22 10:09:56;;;;;;;5.63;1.80;;;7.00;99.90;;;;;;2132203;67;22283;-75
2022/01/22 10:12:52;;;;;;;8.75;2.03;;;7.10;99.90;;;;;;2128511;67;20660;-75
2022/01/22 10:15:35;;;;;;;5.78;1.45;;;7.20;99.90;;;;;;2116181;67;20930;-74
2022/01/22 10:18:19;;;;;;;4.88;1.60;;;7.20;99.90;;;;;;2123026;67;20189;-75
2022/01/22 10:21:08;;;;;;;9.80;2.47;;;7.20;99.90;;;;;;2118233;67;20429;-76
2022/01/22 10:23:50;;;;;;;12.18;3.88;;;7.20;99.90;;;;;;2119947;67;20334;-72
2022/01/22 10:26:33;;;;;;;7.13;1.63;;;7.20;99.90;;;;;;2117079;67;20374;-74
2022/01/22 10:29:20;;;;;;;4.13;1.75;;;7.20;99.90;;;;;;2113684;67;20164;-73
2022/01/22 10:32:03;;;;;;;3.35;1.58;;;7.20;99.90;;;;;;2110529;67;20771;-74
2022/01/22 10:34:47;;;;;;;6.25;1.70;;;7.20;99.90;;;;;;2114006;67;20285;-73
2022/01/22 10:37:31;;;;;;;;;;;7.20;99.90;;;;;;2120357;67;20216;-75
2022/01/22 10:40:47;;;;;;;9.77;1.98;;;7.20;99.90;;;;;;2114611;67;20141;-73
2022/01/22 10:43:33;;;;;;;5.18;1.80;;;7.20;99.90;;;;;;2111503;67;20342;-74
2022/01/22 10:49:28;;;;;;;8.57;1.67;;;7.20;99.90;;;;;;2109607;67;20182;-74
2022/01/22 10:52:11;;;;;;;6.68;2.47;;;7.20;99.90;;;;;;2095154;68;20191;-73
2022/01/22 10:55:02;;;;;;;9.05;2.50;;;7.20;99.90;;;;;;2086265;68;20183;-74
2022/01/22 10:58:07;;;;;;;7.15;2.30;;;7.20;99.90;;;;;;2095026;68;20208;-73
2022/01/22 11:01:06;;;;;;;5.63;2.17;;;7.20;99.90;;;;;;2087841;68;20349;-74
2022/01/22 11:04:06;;;;;;;11.05;2.00;;;7.30;99.90;;;;;;2113316;67;20715;-74
2022/01/22 11:06:52;;;;;;;5.97;1.95;;;7.30;99.90;;;;;;2131774;67;20308;-76
2022/01/22 11:09:35;;;;;;;10.32;2.65;;;7.30;99.90;;;;;;2129795;67;20387;-75
2022/01/22 11:12:17;;;;;;;5.88;2.10;;;7.20;99.90;;;;;;2123746;67;20884;-76
2022/01/22 11:14:59;;;;;;;8.95;2.92;;;7.30;99.90;;;;;;2128422;67;20220;-75
2022/01/22 11:17:41;;;;;;;9.15;2.35;;;7.30;99.90;;;;;;2137073;66;20419;-76
2022/01/22 11:20:26;;;;;;;9.77;2.42;;;7.30;99.90;;;;;;2135501;67;20273;-75
2022/01/22 11:23:09;;;;;;;6.82;2.72;;;7.30;99.90;;;;;;2134613;67;20347;-75
2022/01/22 11:25:52;;;;;;;4.75;2.03;;;7.30;99.90;;;;;;2126805;67;20184;-75
2022/01/22 11:28:35;;;;;;;8.23;2.45;;;7.30;99.90;;;;;;2118297;67;20745;-76
2022/01/22 11:31:17;;;;;;;6.13;1.92;;;7.30;99.90;;;;;;2127954;67;20866;-76
2022/01/22 11:34:01;;;;;;;10.77;3.40;;;7.30;99.90;;;;;;2116890;67;20702;-76
2022/01/22 11:36:52;;;;;;;9.02;3.45;;;7.20;99.90;;;;;;2114086;67;20234;-76
2022/01/22 11:39:36;;;;;;;8.77;3.22;;;7.30;99.90;;;;;;2117055;67;20272;-76
2022/01/22 11:42:22;;;;;;;13.73;3.65;;;7.20;99.90;;;;;;2118578;67;20195;-76
2022/01/22 11:45:25;;;;;;;10.57;3.10;;;7.10;99.90;;;;;;2128240;67;20248;-74
2022/01/22 11:48:17;;;;;;;8.38;2.83;;;7.20;99.90;;;;;;2118998;67;20203;-77
2022/01/22 11:51:27;;;;;;;12.88;2.30;;;7.20;99.90;;;;;;2115182;67;20169;-75
2022/01/22 11:54:09;;;;;;;9.73;3.33;;;7.20;99.90;;;;;;2105836;67;20314;-76
2022/01/22 11:56:56;;;;;;;9.38;2.45;;;7.20;99.90;;;;;;2111024;67;20271;-75
2022/01/22 11:59:38;;;;;;;7.00;2.35;;;7.20;99.90;;;;;;2118672;67;20279;-74
2022/01/22 12:02:20;;;;;;;9.77;3.15;;;7.20;99.90;;;;;;2133095;67;20184;-74
2022/01/22 12:05:04;;;;;;;6.57;3.05;;;7.20;99.90;;;;;;2130078;67;20888;-74
2022/01/22 12:08:11;;;;;;;5.47;3.67;;;7.20;99.90;;;;;;2113528;67;20192;-76
2022/01/22 12:16:59;;;;;;;10.98;3.17;;;7.20;99.90;;;;;;2118771;67;20346;-74
2022/01/22 12:19:48;;;;;;;13.50;4.07;;;7.20;99.90;;;;;;2105202;67;20174;-75
2022/01/22 12:22:49;;;;;;;8.18;3.95;;;7.20;99.90;;;;;;2114954;67;20299;-75
2022/01/22 12:25:30;;;;;;;9.50;3.78;;;7.30;99.90;;;;;;2122569;67;20374;-76
2022/01/22 12:28:14;;;;;;;13.65;4.07;;;7.30;99.90;;;;;;2129063;67;20171;-74
2022/01/22 12:31:06;;;;;;;7.03;3.25;;;7.30;99.90;;;;;;2141503;66;20784;-73
2022/01/22 12:33:54;;;;;;;13.65;4.47;;;7.30;99.90;;;;;;2133598;67;20209;-74
2022/01/22 12:36:39;;;;;;;8.10;3.75;;;7.30;99.90;;;;;;2134281;67;20378;-74
2022/01/22 12:39:28;;;;;;;8.02;3.85;;;7.40;99.90;;;;;;2121053;67;20261;-76
2022/01/22 12:42:23;;;;;;;12.38;3.65;;;7.40;99.90;;;;;;2119127;67;20210;-73
2022/01/22 12:45:07;;;;;;;10.30;4.40;;;7.40;99.90;;;;;;2123215;67;20259;-75
2022/01/22 12:47:50;;;;;;;15.25;3.85;;;7.50;99.90;;;;;;2140280;66;20327;-74
2022/01/22 12:50:36;;;;;;;17.88;4.32;;;7.50;99.90;;;;;;2131304;67;20172;-77
2022/01/22 12:53:18;;;;;;;11.27;3.67;;;7.80;99.90;;;;;;2128044;67;20170;-76
2022/01/22 12:56:47;;;;;;;8.23;3.83;;;7.60;99.90;;;;;;2147648;66;20629;-76
2022/01/22 12:59:16;;;;;;;10.43;3.40;;;7.60;99.90;;;;;;2122425;67;20190;-76
2022/01/22 13:02:02;;;;;;;10.30;3.45;;;7.70;99.90;;;;;;2110730;67;20223;-74
2022/01/22 13:05:00;;;;;;;11.48;3.05;;;7.60;99.90;;;;;;2112619;67;20189;-76
2022/01/22 13:07:53;;;;;;;9.50;3.10;;;7.60;99.90;;;;;;2110806;67;20289;-81
2022/01/22 13:10:43;;;;;;;9.35;3.55;;;7.40;99.90;;;;;;2116729;67;20390;-77
2022/01/22 13:13:25;;;;;;;8.13;2.75;;;7.60;99.90;;;;;;2115465;67;20211;-75
2022/01/22 13:16:13;;;;;;;7.53;2.90;;;7.50;99.90;;;;;;2139595;66;20171;-75
2022/01/22 13:19:01;;;;;;;9.57;2.88;;;7.50;99.90;;;;;;2145458;66;20223;-77
2022/01/22 13:22:00;;;;;;;8.95;3.10;;;7.50;99.90;;;;;;2138933;67;20345;-74
2022/01/22 13:24:43;;;;;;;8.55;3.20;;;7.50;99.90;;;;;;2134530;67;20324;-74
2022/01/22 13:27:25;;;;;;;7.93;2.88;;;7.50;99.90;;;;;;2132100;67;20203;-74
2022/01/22 13:30:09;;;;;;;8.35;2.60;;;7.50;99.90;;;;;;2133163;67;20191;-74
2022/01/22 13:32:57;;;;;;;8.43;2.40;;;7.50;99.90;;;;;;2135800;66;20349;-78
2022/01/22 13:50:17;;;;;;;6.90;2.08;;;7.30;99.90;;;;;;2133504;66;20875;-78
2022/01/22 13:53:04;;;;;;;5.63;2.50;;;7.20;99.90;;;;;;2136586;66;20179;-73
2022/01/22 13:56:05;;;;;;;7.65;2.60;;;7.10;99.90;;;;;;2125496;67;20814;-73
2022/01/22 13:58:47;;;;;;;;;;;7.10;99.90;;;;;;2114541;67;20202;-80
2022/01/22 14:01:50;;;;;;;7.80;2.92;;;7.00;99.90;;;;;;2119454;67;20274;-80
2022/01/22 14:05:03;;;;;;;9.75;2.60;;;7.50;99.90;;;;;;2130508;67;20243;-79
2022/01/22 14:07:55;;;;;;;7.53;3.05;;;7.00;99.90;;;;;;2151989;66;20373;-81
2022/01/22 14:10:38;;;;;;;11.13;3.28;;;7.00;99.90;;;;;;2139711;66;20353;-82
2022/01/22 14:13:22;;;;;;;7.15;2.95;;;7.00;99.90;;;;;;2147461;66;20397;-78
2022/01/22 14:16:21;;;;;;;13.05;2.58;;;7.00;99.90;;;;;;2143124;66;20308;-79
2022/01/22 14:19:04;;;;;;;6.63;2.17;;;7.00;99.90;;;;;;2136183;67;20246;-80
2022/01/22 14:21:57;;;;;;;5.78;2.03;;;7.00;99.90;;;;;;2137190;67;20160;-80
2022/01/22 14:24:39;;;;;;;4.78;1.80;;;7.00;99.90;;;;;;2133341;67;20237;-79
2022/01/22 14:27:21;;;;;;;13.75;2.17;;;7.00;99.90;;;;;;2140147;66;20171;-79
2022/01/22 14:30:06;;;;;;;7.82;1.80;;;7.00;99.90;;;;;;2148293;66;20753;-77
2022/01/22 14:32:57;;;;;;;5.30;1.88;;;7.00;99.90;;;;;;2140364;66;20317;-79
2022/01/22 14:35:39;;;;;;;9.00;1.77;;;7.10;99.90;;;;;;2128497;67;20807;-81
2022/01/22 14:38:41;;;;;;;5.30;1.85;;;7.00;99.90;;;;;;2132571;67;20183;-80
2022/01/22 14:44:49;;;;;;;;;;;7.00;99.90;;;;;;2122259;67;20184;-81
2022/01/22 14:47:38;;;;;;;6.30;2.00;;;7.00;99.90;;;;;;2130414;66;20132;-82
2022/01/22 14:50:36;;;;;;;7.20;1.70;;;6.90;99.90;;;;;;2133995;67;20210;-82
2022/01/22 14:53:29;;;;;;;5.72;1.70;;;7.00;99.90;;;;;;2131197;67;20197;-81
2022/01/22 14:56:08;;;;;;;9.50;2.80;;;7.00;99.90;;;;;;2137567;66;20263;-74
2022/01/22 14:58:47;;;;;;;6.85;1.52;;;7.00;99.90;;;;;;2156544;66;20203;-73
2022/01/22 15:01:23;;;;;;;9.15;1.88;;;7.00;99.90;;;;;;2166069;65;20219;-75
2022/01/22 15:04:00;;;;;;;8.60;1.67;;;7.10;99.90;;;;;;2184399;65;20282;-73
2022/01/22 15:06:40;;;;;;;6.45;1.90;;;7.00;99.90;;;;;;2198492;64;20705;-75
2022/01/22 15:09:16;;;;;;;5.45;1.70;;;7.00;99.90;;;;;;2213721;64;20163;-73
2022/01/22 15:12:11;;;;;;;10.10;1.95;;;7.00;99.90;;;;;;2236497;63;20189;-74
2022/01/22 15:14:53;;;;;;;6.50;2.10;;;7.00;99.90;;;;;;2243647;63;20169;-73
2022/01/22 15:17:43;;;;;;;7.05;2.55;;;7.00;99.90;;;;;;2243251;63;20346;-74
2022/01/22 15:20:22;;;;;;;6.70;1.50;;;7.00;99.90;;;;;;2243375;63;20173;-73
2022/01/22 15:23:03;;;;;;;11.10;1.75;;;7.00;99.90;;;;;;2243403;63;20189;-74
2022/01/22 15:25:42;;;;;;;5.10;2.05;;;6.90;99.90;;;;;;2243333;63;20190;-73
2022/01/22 15:28:22;;;;;;;3.92;1.15;;;7.00;99.90;;;;;;2242997;63;20645;-74
2022/01/22 15:31:01;;;;;;;9.35;1.88;;;6.90;99.90;;;;;;2244313;63;20283;-73
2022/01/22 15:33:55;;;;;;;1.98;1.23;;;6.90;99.90;;;;;;2220287;64;20240;-74
2022/01/22 15:36:33;;;;;;;6.75;2.10;;;6.90;99.90;;;;;;2220415;64;20250;-74
2022/01/22 15:39:13;;;;;;;6.53;1.88;;;6.80;99.90;;;;;;2219596;64;20196;-77
2022/01/22 15:41:56;;;;;;;;;;;6.80;99.90;;;;;;2197334;65;20192;-80
2022/01/22 15:44:40;;;;;;;2.33;1.10;;;6.80;99.90;;;;;;2176483;65;20083;-77
2022/01/22 15:47:22;;;;;;;5.60;1.48;;;6.70;99.90;;;;;;2175719;65;20304;-77
2022/01/22 15:50:07;;;;;;;4.78;1.20;;;6.80;99.90;;;;;;2175083;65;20255;-79
2022/01/22 15:52:50;;;;;;;4.10;1.17;;;6.70;99.90;;;;;;2180285;65;20178;-81
2022/01/22 15:55:33;;;;;;;5.00;1.38;;;6.90;99.90;;;;;;2165225;65;20325;-80
2022/01/22 15:58:42;;;;;;;3.72;1.65;;;6.70;99.90;;;;;;2146446;66;20218;-79
2022/01/22 16:01:25;;;;;;;5.47;1.88;;;6.60;99.90;;;;;;2140681;66;20225;-77
2022/01/22 16:04:10;;;;;;;9.65;2.05;;;6.60;99.90;;;;;;2138357;66;20218;-78
2022/01/22 16:09:37;;;;;;;9.23;2.08;;;6.60;99.90;;;;;;2127082;67;20210;-80
2022/01/22 16:12:23;;;;;;;5.05;1.55;;;6.60;99.90;;;;;;2124191;67;20176;-79
2022/01/22 16:15:09;;;;;;;2.50;1.38;;;6.20;99.90;;;;;;2118460;67;20815;-80
2022/01/22 16:17:52;;;;;;;7.95;1.88;;;6.50;99.90;;;;;;2107868;67;20316;-79
2022/01/22 16:20:28;;;;;;;6.05;1.65;;;7.40;99.90;;;;;;2110703;67;20281;-79
2022/01/22 16:23:02;;;;;;;3.55;1.48;;;6.50;99.90;;;;;;2111229;67;20347;-79
2022/01/22 16:25:35;;;;;;;6.80;2.28;;;6.40;99.90;;;;;;2111326;67;20403;-79